Terminal Aerodrome Forecast
Issued by NWS

Home | Current Version | Previous Version | Text Only | Print | Product List | Glossary On
Versions: 1 2 3 4 5 6 7 8 9 10 11 12 13 14 15 16
000
FTUS42 KMLB 011901 AAA
TAFSFB
TAF AMD
KSFB 011901Z 0119/0218 22010KT P6SM VCSH FEW015 BKN040 OVC080
      TEMPO 0119/0122 3SM SHRA BKN015 OVC030
     FM012200 21008KT P6SM VCSH SCT020 BKN035 OVC060
     FM020100 20005KT P6SM FEW015 BKN040 OVC080
     FM021400 22013KT P6SM SCT040 BKN120=

USA.gov is the U.S. government's official web portal to all federal, state and local government web resources and services.